Time;durP1;ratioP1;P1;durP2;ratioP2;P2;SDS_P1;SDS_P2;PMS_P1;PMS_P2;Temp;Humidity;BMP_temperature;BMP_pressure;BME280_temperature;BME280_humidity;BME280_pressure;Samples;Min_cycle;Max_cycle;Signal;HPM_P1;HPM_P2
2022/10/18 00:01:12;;;;;;;15.00;7.43;;;14.60;99.90;;;;;;5094557;28;20028;-65
2022/10/18 00:03:38;;;;;;;13.55;7.47;;;14.60;99.90;;;;;;5093305;28;20020;-59
2022/10/18 00:06:05;;;;;;;13.07;7.40;;;14.60;99.90;;;;;;5093922;28;20024;-62
2022/10/18 00:08:31;;;;;;;16.55;7.40;;;14.60;99.90;;;;;;5094738;28;20012;-66
2022/10/18 00:10:57;;;;;;;16.90;8.15;;;14.50;99.90;;;;;;5094516;28;20039;-58
2022/10/18 00:13:23;;;;;;;18.58;8.68;;;14.50;99.90;;;;;;5094080;28;20020;-57
2022/10/18 00:15:54;;;;;;;23.25;8.70;;;14.50;99.90;;;;;;5094496;28;20469;-61
2022/10/18 00:18:20;;;;;;;20.65;9.50;;;14.50;99.90;;;;;;5094146;28;20024;-59
2022/10/18 00:20:59;;;;;;;21.10;9.55;;;14.50;99.90;;;;;;5093818;28;20048;-68
2022/10/18 00:23:25;;;;;;;21.80;10.93;;;14.50;99.90;;;;;;5094406;28;20028;-62
2022/10/18 00:26:06;;;;;;;21.65;10.63;;;14.50;99.90;;;;;;5093727;28;20028;-68
2022/10/18 00:28:34;;;;;;;20.77;10.23;;;14.60;99.90;;;;;;5094251;28;20380;-69
2022/10/18 00:31:30;;;;;;;20.63;10.18;;;14.60;99.90;;;;;;5093719;28;20047;-65
2022/10/18 00:33:59;;;;;;;22.88;10.10;;;14.60;99.90;;;;;;5077211;28;20384;-66
2022/10/18 00:36:26;;;;;;;16.90;9.40;;;14.60;99.90;;;;;;5094249;28;20019;-68
2022/10/18 00:38:52;;;;;;;18.25;9.70;;;14.60;99.90;;;;;;5094002;28;20095;-61
2022/10/18 00:41:23;;;;;;;18.25;9.20;;;14.60;99.90;;;;;;5092720;28;20112;-56
2022/10/18 00:43:56;;;;;;;18.02;10.05;;;14.60;99.90;;;;;;5093869;28;20380;-56
2022/10/18 00:46:23;;;;;;;22.00;10.95;;;14.70;99.90;;;;;;5093435;28;20016;-50
2022/10/18 00:48:49;;;;;;;24.60;11.60;;;14.70;99.90;;;;;;5093125;28;20067;-61
2022/10/18 00:51:18;;;;;;;19.20;10.63;;;14.70;99.90;;;;;;5092191;28;20112;-56
2022/10/18 00:53:45;;;;;;;30.25;12.57;;;14.70;99.90;;;;;;5093770;28;20030;-59
2022/10/18 00:56:11;;;;;;;37.47;12.45;;;14.70;99.90;;;;;;5092669;28;20040;-59
2022/10/18 00:58:37;;;;;;;39.45;14.52;;;14.80;99.90;;;;;;5093494;28;20028;-61
2022/10/18 01:01:03;;;;;;;48.88;14.52;;;14.80;99.90;;;;;;5091268;28;20024;-56
2022/10/18 01:03:28;;;;;;;40.40;13.13;;;14.90;99.90;;;;;;5093342;28;20059;-56
2022/10/18 01:05:54;;;;;;;25.17;13.00;;;14.90;99.90;;;;;;5093688;28;20017;-55
2022/10/18 01:08:49;;;;;;;27.70;12.55;;;14.90;99.90;;;;;;5092507;28;20028;-56
2022/10/18 01:11:31;;;;;;;29.20;13.63;;;14.90;99.90;;;;;;5093055;28;20131;-64
2022/10/18 01:14:29;;;;;;;22.60;12.18;;;14.90;99.90;;;;;;5092855;28;20089;-54
2022/10/18 01:17:53;;;;;;;22.48;12.30;;;14.90;99.90;;;;;;5092619;28;20085;-57
2022/10/18 01:20:40;;;;;;;22.25;12.38;;;14.80;99.90;;;;;;5054586;28;20059;-58
2022/10/18 01:23:27;;;;;;;25.77;12.73;;;14.80;99.90;;;;;;5092380;28;20059;-50
2022/10/18 01:26:06;;;;;;;21.95;12.30;;;14.80;99.90;;;;;;5092876;28;20107;-52
2022/10/18 01:28:35;;;;;;;20.98;12.25;;;14.70;99.90;;;;;;5092995;28;20107;-51
2022/10/18 01:31:05;;;;;;;20.45;11.45;;;14.70;99.90;;;;;;5092000;28;20055;-58
2022/10/18 01:33:33;;;;;;;21.67;11.93;;;14.70;99.90;;;;;;5093007;28;20032;-54
2022/10/18 01:36:05;;;;;;;19.45;10.90;;;14.70;99.90;;;;;;5092401;28;20020;-56
2022/10/18 01:38:33;;;;;;;20.00;11.93;;;14.60;99.90;;;;;;5091360;28;20028;-52
2022/10/18 01:41:01;;;;;;;19.83;11.05;;;14.60;99.90;;;;;;5092494;28;20496;-52
2022/10/18 01:43:27;;;;;;;17.27;10.07;;;14.50;99.90;;;;;;5094309;28;20800;-54
2022/10/18 01:45:55;;;;;;;19.00;10.13;;;14.50;99.90;;;;;;5097943;28;20488;-52
2022/10/18 01:48:21;;;;;;;18.67;10.40;;;14.50;99.90;;;;;;5092265;28;20020;-53
2022/10/18 01:50:47;;;;;;;17.70;10.82;;;14.50;99.90;;;;;;5092006;28;20085;-53
2022/10/18 01:53:23;;;;;;;19.80;11.00;;;14.50;99.90;;;;;;5091504;28;20016;-51
2022/10/18 01:55:57;;;;;;;26.52;10.23;;;14.50;99.90;;;;;;5092301;28;20480;-53
2022/10/18 01:58:47;;;;;;;23.23;10.82;;;14.50;99.90;;;;;;5090435;28;20032;-53
2022/10/18 02:01:41;;;;;;;23.15;10.93;;;14.40;99.90;;;;;;5092175;28;20035;-53
2022/10/18 02:04:39;;;;;;;33.80;12.32;;;14.40;99.90;;;;;;5091955;28;20020;-52
2022/10/18 02:07:49;;;;;;;25.48;11.40;;;14.40;99.90;;;;;;5090736;28;20012;-52
2022/10/18 02:10:23;;;;;;;29.63;10.68;;;14.40;99.90;;;;;;5071005;28;20040;-67
2022/10/18 02:12:51;;;;;;;21.38;10.52;;;14.30;99.90;;;;;;5092824;28;20055;-54
2022/10/18 02:15:20;;;;;;;18.83;8.93;;;14.40;99.90;;;;;;5092714;28;20032;-59
2022/10/18 02:17:46;;;;;;;18.85;10.65;;;14.30;99.90;;;;;;5091392;28;20544;-53
2022/10/18 02:20:14;;;;;;;17.77;9.25;;;14.30;99.90;;;;;;5089553;28;20117;-69
2022/10/18 02:22:44;;;;;;;15.80;8.48;;;14.30;99.90;;;;;;5090689;28;20074;-55
2022/10/18 02:25:15;;;;;;;15.98;9.82;;;14.40;99.90;;;;;;5090995;28;20024;-59
2022/10/18 02:27:41;;;;;;;12.82;8.85;;;14.40;99.90;;;;;;5091008;28;20024;-53
2022/10/18 02:30:08;;;;;;;17.17;10.43;;;14.40;99.90;;;;;;5094768;28;20032;-69
2022/10/18 02:32:40;;;;;;;17.40;10.43;;;14.30;99.90;;;;;;5090860;28;20016;-56
2022/10/18 02:35:09;;;;;;;15.73;9.23;;;14.30;99.90;;;;;;5091886;28;20036;-64
2022/10/18 02:37:38;;;;;;;18.33;10.48;;;14.30;99.90;;;;;;5091557;28;20446;-54
2022/10/18 02:40:06;;;;;;;20.20;9.63;;;14.30;99.90;;;;;;5090823;28;20354;-52
2022/10/18 02:42:37;;;;;;;20.67;11.20;;;14.30;99.90;;;;;;5091619;28;20024;-53
2022/10/18 02:45:04;;;;;;;20.83;10.33;;;14.30;99.90;;;;;;5091643;28;20016;-52
2022/10/18 02:47:30;;;;;;;22.02;10.40;;;14.30;99.90;;;;;;5090880;28;20277;-55
2022/10/18 02:49:56;;;;;;;18.80;9.73;;;14.20;99.90;;;;;;5091748;28;20028;-56
2022/10/18 02:52:21;;;;;;;17.02;10.73;;;14.30;99.90;;;;;;5091455;28;20024;-55
2022/10/18 02:54:47;;;;;;;21.52;10.20;;;14.20;99.90;;;;;;5090907;28;20035;-55
2022/10/18 02:57:12;;;;;;;16.98;9.38;;;14.20;99.90;;;;;;5091182;28;20106;-55
2022/10/18 02:59:38;;;;;;;19.00;10.40;;;14.20;99.90;;;;;;5091887;28;20032;-51
2022/10/18 03:02:03;;;;;;;17.10;9.50;;;14.20;99.90;;;;;;5090601;28;20419;-53
2022/10/18 03:04:29;;;;;;;20.23;9.90;;;14.10;99.90;;;;;;5091970;28;20028;-54
2022/10/18 03:06:55;;;;;;;21.65;9.43;;;14.10;99.90;;;;;;5093914;28;20389;-56
2022/10/18 03:09:20;;;;;;;21.27;9.43;;;14.00;99.90;;;;;;5092052;28;20223;-52
2022/10/18 03:11:46;;;;;;;13.80;8.77;;;14.00;99.90;;;;;;5095200;28;20044;-55
2022/10/18 03:14:11;;;;;;;16.42;8.70;;;14.00;99.90;;;;;;5094977;28;20104;-53
2022/10/18 03:16:37;;;;;;;20.17;9.25;;;14.00;99.90;;;;;;5094178;28;20051;-56
2022/10/18 03:19:03;;;;;;;16.00;9.00;;;14.00;99.90;;;;;;5095084;28;20016;-53
2022/10/18 03:21:28;;;;;;;15.45;9.27;;;14.00;99.90;;;;;;5095161;28;20126;-56
2022/10/18 03:23:54;;;;;;;18.30;9.05;;;14.00;99.90;;;;;;5094548;28;20104;-58
2022/10/18 03:26:20;;;;;;;17.55;9.40;;;13.90;99.90;;;;;;5105314;28;20020;-58
2022/10/18 03:28:46;;;;;;;18.48;10.35;;;13.90;99.90;;;;;;5093994;28;20073;-56
2022/10/18 03:31:12;;;;;;;19.10;9.75;;;14.00;99.90;;;;;;5094113;28;20471;-55
2022/10/18 03:33:37;;;;;;;24.75;10.80;;;13.90;99.90;;;;;;5095288;28;20491;-57
2022/10/18 03:36:03;;;;;;;15.75;9.48;;;13.90;99.90;;;;;;5091918;28;20023;-58
2022/10/18 03:38:29;;;;;;;16.90;9.55;;;14.00;99.90;;;;;;5095029;28;20039;-52
2022/10/18 03:40:55;;;;;;;17.35;9.60;;;13.90;99.90;;;;;;5094313;28;20020;-53
2022/10/18 03:43:21;;;;;;;14.98;9.32;;;14.00;99.90;;;;;;5094864;28;20112;-51
2022/10/18 03:45:46;;;;;;;13.70;9.07;;;14.00;99.90;;;;;;5095041;28;20032;-55
2022/10/18 03:48:13;;;;;;;17.02;10.02;;;14.00;99.90;;;;;;5094059;28;20352;-62
2022/10/18 03:50:38;;;;;;;15.93;8.77;;;13.90;99.90;;;;;;5095009;28;20020;-56
2022/10/18 03:53:04;;;;;;;17.27;9.23;;;14.00;99.90;;;;;;5096527;28;20024;-57
2022/10/18 03:55:30;;;;;;;17.17;9.32;;;13.90;99.90;;;;;;5097941;28;20081;-57
2022/10/18 03:57:56;;;;;;;17.38;9.90;;;13.90;99.90;;;;;;5094584;28;20464;-59
2022/10/18 04:00:22;;;;;;;16.05;9.27;;;13.90;99.90;;;;;;5094909;28;20103;-56
2022/10/18 04:02:48;;;;;;;18.27;9.23;;;13.80;99.90;;;;;;5094060;28;20452;-63
2022/10/18 04:05:14;;;;;;;20.42;9.88;;;13.80;99.90;;;;;;5094479;28;20038;-56
2022/10/18 04:07:39;;;;;;;22.58;9.90;;;13.80;99.90;;;;;;5094326;28;20103;-53
2022/10/18 04:10:06;;;;;;;25.83;9.93;;;13.80;99.90;;;;;;5093551;28;20027;-53
2022/10/18 04:12:31;;;;;;;21.08;8.65;;;13.80;99.90;;;;;;5094314;28;20074;-56
2022/10/18 04:14:57;;;;;;;19.02;7.80;;;13.80;99.90;;;;;;5094073;28;20032;-58
2022/10/18 04:17:23;;;;;;;23.63;8.38;;;13.80;99.90;;;;;;5093087;28;20050;-60
2022/10/18 04:19:48;;;;;;;15.48;8.27;;;13.80;99.90;;;;;;5094145;28;20103;-69
2022/10/18 04:22:14;;;;;;;14.23;8.52;;;13.90;99.90;;;;;;5109837;28;20419;-55
2022/10/18 04:24:40;;;;;;;14.23;8.15;;;13.90;99.90;;;;;;5102660;28;20031;-61
2022/10/18 04:27:06;;;;;;;13.05;8.57;;;13.90;99.90;;;;;;5093834;28;20432;-68
2022/10/18 04:29:33;;;;;;;14.55;8.35;;;13.90;99.90;;;;;;5093805;28;20426;-67
2022/10/18 04:31:59;;;;;;;14.10;8.27;;;13.90;99.90;;;;;;5093392;28;20047;-65
2022/10/18 04:34:25;;;;;;;13.55;7.75;;;13.90;99.90;;;;;;5093750;28;20020;-67
2022/10/18 04:36:50;;;;;;;13.30;8.43;;;13.90;99.90;;;;;;5092543;28;20032;-58
2022/10/18 04:39:16;;;;;;;15.27;8.60;;;13.80;99.90;;;;;;5093264;28;20024;-50
2022/10/18 04:41:42;;;;;;;14.40;8.15;;;13.80;99.90;;;;;;5093687;28;20487;-56
2022/10/18 04:44:07;;;;;;;17.98;9.10;;;13.80;99.90;;;;;;5093399;28;20058;-56
2022/10/18 04:46:33;;;;;;;17.25;9.00;;;13.70;99.90;;;;;;5093264;28;20046;-54
2022/10/18 04:49:00;;;;;;;15.48;8.68;;;13.70;99.90;;;;;;5092236;28;20056;-53
2022/10/18 04:51:27;;;;;;;14.88;8.52;;;13.70;99.90;;;;;;5092929;28;20368;-52
2022/10/18 04:53:52;;;;;;;16.52;9.43;;;13.60;99.90;;;;;;5092299;28;20468;-55
2022/10/18 04:56:18;;;;;;;17.58;9.52;;;13.60;99.90;;;;;;5093443;28;20080;-53
2022/10/18 04:58:44;;;;;;;15.98;9.15;;;13.60;99.90;;;;;;5092687;28;20039;-55
2022/10/18 05:01:09;;;;;;;16.23;8.77;;;13.60;99.90;;;;;;5093525;28;20032;-57
2022/10/18 05:03:35;;;;;;;16.13;8.20;;;13.60;99.90;;;;;;5093518;28;20016;-55
2022/10/18 05:06:01;;;;;;;16.17;8.43;;;13.60;99.90;;;;;;5091867;28;20081;-55
2022/10/18 05:08:26;;;;;;;15.70;8.23;;;13.50;99.90;;;;;;5094010;28;20468;-58
2022/10/18 05:10:52;;;;;;;18.00;8.98;;;13.50;99.90;;;;;;5094491;28;20028;-53
2022/10/18 05:13:18;;;;;;;17.13;9.07;;;13.50;99.90;;;;;;5089385;28;20031;-53
2022/10/18 05:15:46;;;;;;;13.80;8.07;;;13.50;99.90;;;;;;5091901;28;20535;-56
2022/10/18 05:18:11;;;;;;;19.08;9.93;;;13.50;99.90;;;;;;5092564;28;20035;-51
2022/10/18 05:20:37;;;;;;;15.88;8.38;;;13.50;99.90;;;;;;5092197;28;20036;-54
2022/10/18 05:23:02;;;;;;;17.83;9.00;;;13.50;99.90;;;;;;5091555;28;20035;-52
2022/10/18 05:25:28;;;;;;;16.00;8.63;;;13.40;99.90;;;;;;5093115;28;20043;-54
2022/10/18 05:27:53;;;;;;;18.00;9.55;;;13.40;99.90;;;;;;5092318;28;20020;-55
2022/10/18 05:30:20;;;;;;;18.95;9.93;;;13.40;99.90;;;;;;5092532;28;20020;-52
2022/10/18 05:32:46;;;;;;;15.95;8.45;;;13.30;99.90;;;;;;5092794;28;20016;-52
2022/10/18 05:35:11;;;;;;;20.58;10.20;;;13.30;99.90;;;;;;5090494;28;20047;-51
2022/10/18 05:37:37;;;;;;;16.02;9.18;;;13.30;99.90;;;;;;5092767;28;20067;-52
2022/10/18 05:40:03;;;;;;;15.40;8.43;;;13.20;99.90;;;;;;5092401;28;20016;-55
2022/10/18 05:42:29;;;;;;;17.08;9.27;;;13.20;99.90;;;;;;5092023;28;20035;-50
2022/10/18 05:44:54;;;;;;;15.02;8.82;;;13.20;99.90;;;;;;5092575;28;20028;-56
2022/10/18 05:47:20;;;;;;;15.23;8.10;;;13.10;99.90;;;;;;5092267;28;20172;-53
2022/10/18 05:49:46;;;;;;;15.98;8.50;;;13.00;99.90;;;;;;5091993;28;20024;-51
2022/10/18 05:52:12;;;;;;;13.60;8.10;;;13.00;99.90;;;;;;5092391;28;20047;-51
2022/10/18 05:54:37;;;;;;;13.70;7.97;;;12.90;99.90;;;;;;5091948;28;20480;-54
2022/10/18 05:57:03;;;;;;;13.52;7.93;;;12.90;99.90;;;;;;5092204;28;20489;-52
2022/10/18 05:59:28;;;;;;;12.98;7.25;;;12.80;99.90;;;;;;5092640;28;20028;-57
2022/10/18 06:01:54;;;;;;;12.40;7.50;;;12.70;99.90;;;;;;5094247;28;20068;-55
2022/10/18 06:04:20;;;;;;;14.00;7.47;;;12.70;99.90;;;;;;5093008;28;20020;-55
2022/10/18 06:06:45;;;;;;;19.58;8.57;;;12.70;99.90;;;;;;5091196;28;20032;-54
2022/10/18 06:09:11;;;;;;;22.13;6.70;;;12.60;99.90;;;;;;5091449;28;20039;-56
2022/10/18 06:11:36;;;;;;;19.05;5.72;;;12.60;99.90;;;;;;5092249;28;20035;-55
2022/10/18 06:14:03;;;;;;;18.85;6.18;;;12.60;99.90;;;;;;5091821;28;20028;-54
2022/10/18 06:16:28;;;;;;;18.20;6.82;;;12.60;99.90;;;;;;5091471;28;20119;-54
2022/10/18 06:18:56;;;;;;;19.05;6.57;;;12.50;99.90;;;;;;5091946;28;20051;-52
2022/10/18 06:21:23;;;;;;;28.35;6.25;;;12.50;99.90;;;;;;5091940;28;20455;-56
2022/10/18 06:23:50;;;;;;;27.00;5.55;;;12.40;99.90;;;;;;5091515;28;20031;-52
2022/10/18 06:26:16;;;;;;;37.00;5.88;;;12.40;99.90;;;;;;5090344;28;20035;-56
2022/10/18 06:28:42;;;;;;;10.52;5.30;;;12.40;99.90;;;;;;5091851;28;20032;-53
2022/10/18 06:31:09;;;;;;;10.90;5.22;;;12.30;99.90;;;;;;5091044;28;20032;-55
2022/10/18 06:33:36;;;;;;;9.43;4.82;;;12.30;99.90;;;;;;5092149;28;20031;-56
2022/10/18 06:36:04;;;;;;;22.13;5.03;;;12.30;99.90;;;;;;5091675;28;20091;-53
2022/10/18 06:38:30;;;;;;;12.63;5.00;;;12.30;99.90;;;;;;5091219;28;20024;-57
2022/10/18 06:40:57;;;;;;;7.95;4.57;;;12.20;99.90;;;;;;5091560;28;20024;-58
2022/10/18 06:43:23;;;;;;;7.47;4.72;;;12.20;99.90;;;;;;5091783;28;20471;-54
2022/10/18 06:45:49;;;;;;;13.52;5.05;;;12.20;99.90;;;;;;5090975;28;20020;-57
2022/10/18 06:48:16;;;;;;;13.55;5.15;;;12.10;99.90;;;;;;5091709;28;20027;-55
2022/10/18 06:50:42;;;;;;;7.78;5.05;;;12.10;99.90;;;;;;5091881;28;20070;-54
2022/10/18 06:53:08;;;;;;;8.38;5.53;;;12.10;99.90;;;;;;5091094;28;20024;-54
2022/10/18 06:55:34;;;;;;;13.68;4.90;;;12.10;99.90;;;;;;5091627;28;20021;-52
2022/10/18 06:58:00;;;;;;;11.70;5.28;;;12.00;99.90;;;;;;5090670;28;20036;-55
2022/10/18 07:00:26;;;;;;;13.00;5.63;;;12.00;99.90;;;;;;5090506;28;20024;-55
2022/10/18 07:02:51;;;;;;;12.75;5.88;;;12.00;99.90;;;;;;5091482;28;20032;-54
2022/10/18 07:05:17;;;;;;;9.15;5.05;;;12.00;99.90;;;;;;5090305;28;20546;-57
2022/10/18 07:07:43;;;;;;;9.95;5.28;;;12.00;99.90;;;;;;5092096;28;20028;-55
2022/10/18 07:10:09;;;;;;;12.98;5.50;;;12.00;99.90;;;;;;5084501;28;20024;-55
2022/10/18 07:12:38;;;;;;;16.65;5.53;;;12.00;99.90;;;;;;5086518;28;20115;-68
2022/10/18 07:15:04;;;;;;;11.30;5.03;;;12.00;99.90;;;;;;5091206;28;20025;-54
2022/10/18 07:17:30;;;;;;;12.18;5.07;;;12.00;99.90;;;;;;5091256;28;20383;-55
2022/10/18 07:19:55;;;;;;;17.98;5.75;;;12.10;99.90;;;;;;5090588;28;20081;-54
2022/10/18 07:22:21;;;;;;;11.50;5.45;;;12.10;99.90;;;;;;5091519;28;20161;-54
2022/10/18 07:24:46;;;;;;;15.82;5.60;;;12.20;99.90;;;;;;5091396;28;20492;-58
2022/10/18 07:27:12;;;;;;;13.95;5.60;;;12.20;99.90;;;;;;5089280;28;20024;-52
2022/10/18 07:29:38;;;;;;;11.07;4.68;;;12.20;99.90;;;;;;5084147;28;20028;-52
2022/10/18 07:32:04;;;;;;;15.80;6.00;;;12.20;99.90;;;;;;5091066;28;20024;-54
2022/10/18 07:34:30;;;;;;;8.82;4.70;;;12.30;99.90;;;;;;5090694;28;20020;-50
2022/10/18 07:36:55;;;;;;;7.07;4.88;;;12.20;99.90;;;;;;5090052;28;20028;-55
2022/10/18 07:39:21;;;;;;;8.68;4.18;;;12.20;99.90;;;;;;5091038;28;20484;-49
2022/10/18 07:41:47;;;;;;;9.43;4.85;;;12.20;99.90;;;;;;5090656;28;20056;-50
2022/10/18 07:44:12;;;;;;;9.85;5.15;;;12.20;99.90;;;;;;5089948;28;20055;-56
2022/10/18 07:46:38;;;;;;;7.95;4.75;;;12.20;99.90;;;;;;5091074;28;20384;-49
2022/10/18 07:49:04;;;;;;;8.50;5.07;;;12.20;99.90;;;;;;5090627;28;20020;-54
2022/10/18 07:51:31;;;;;;;9.00;5.15;;;12.20;99.90;;;;;;5091305;28;20427;-58
2022/10/18 07:54:00;;;;;;;7.45;4.32;;;12.30;99.90;;;;;;5094848;28;20067;-56
2022/10/18 07:56:26;;;;;;;10.65;5.07;;;12.30;99.90;;;;;;5092901;28;20023;-58
2022/10/18 07:58:54;;;;;;;8.23;4.88;;;12.40;99.90;;;;;;5094754;28;20032;-50
2022/10/18 08:01:21;;;;;;;13.27;6.03;;;12.40;99.90;;;;;;5093916;28;20069;-51
2022/10/18 08:03:47;;;;;;;10.43;5.72;;;12.50;99.90;;;;;;5094749;28;20031;-58
2022/10/18 08:06:15;;;;;;;9.10;4.90;;;12.60;99.90;;;;;;5090124;28;20350;-59
2022/10/18 08:08:41;;;;;;;9.60;5.32;;;12.60;99.90;;;;;;5098513;28;20497;-59
2022/10/18 08:11:18;;;;;;;10.02;4.93;;;12.70;99.90;;;;;;5097948;28;20448;-54
2022/10/18 08:13:43;;;;;;;14.90;7.05;;;12.80;99.90;;;;;;5077556;28;20029;-52
2022/10/18 08:16:12;;;;;;;13.50;6.68;;;12.90;99.90;;;;;;5086417;28;20036;-53
2022/10/18 08:18:38;;;;;;;14.40;6.53;;;13.10;99.90;;;;;;5092153;28;20031;-57
2022/10/18 08:21:06;;;;;;;12.25;6.93;;;13.20;99.90;;;;;;5093801;28;20044;-61
2022/10/18 08:23:32;;;;;;;14.23;7.28;;;13.30;99.90;;;;;;5092254;28;20016;-56
2022/10/18 08:26:05;;;;;;;16.15;7.40;;;13.40;99.90;;;;;;5104583;28;20062;-57
2022/10/18 08:28:30;;;;;;;13.48;6.60;;;13.50;99.90;;;;;;5098600;28;20021;-59
2022/10/18 08:30:56;;;;;;;14.75;6.40;;;13.60;99.90;;;;;;5076897;28;20028;-56
2022/10/18 08:33:22;;;;;;;16.20;6.38;;;13.60;99.90;;;;;;5087509;28;20464;-59
2022/10/18 08:35:56;;;;;;;14.40;5.75;;;13.70;99.90;;;;;;5093413;28;20366;-52
2022/10/18 08:38:21;;;;;;;16.55;5.50;;;13.80;99.90;;;;;;5091789;28;20402;-54
2022/10/18 08:40:47;;;;;;;9.18;4.63;;;13.90;99.90;;;;;;5096642;28;20016;-57
2022/10/18 08:43:37;;;;;;;10.55;4.78;;;14.00;99.90;;;;;;5092348;28;20380;-53
2022/10/18 08:46:03;;;;;;;9.23;4.13;;;14.00;99.90;;;;;;5103139;28;20166;-56
2022/10/18 08:48:35;;;;;;;12.68;4.07;;;14.10;99.90;;;;;;5095083;28;20079;-52
2022/10/18 08:51:04;;;;;;;10.57;3.25;;;14.20;99.90;;;;;;5095107;28;20035;-52
2022/10/18 08:53:47;;;;;;;6.22;3.10;;;14.20;99.90;;;;;;5092603;28;20086;-52
2022/10/18 08:56:14;;;;;;;9.55;3.10;;;14.30;99.90;;;;;;5093820;28;20035;-53
2022/10/18 08:58:43;;;;;;;9.32;2.63;;;14.30;99.90;;;;;;5091795;28;20027;-55
2022/10/18 09:01:17;;;;;;;5.75;2.60;;;14.40;99.90;;;;;;5085302;28;20033;-53
2022/10/18 09:03:48;;;;;;;7.40;2.90;;;14.50;99.90;;;;;;5079635;28;20031;-51
2022/10/18 09:06:14;;;;;;;;;;;14.50;99.90;;;;;;5094122;28;20540;-55
2022/10/18 09:09:12;;;;;;;8.93;2.58;;;14.60;99.90;;;;;;5082000;28;19991;-56
2022/10/18 09:12:10;;;;;;;8.68;2.58;;;14.60;99.90;;;;;;5088664;28;20051;-50
2022/10/18 09:14:57;;;;;;;4.78;1.90;;;14.60;99.90;;;;;;5091818;28;20483;-55
2022/10/18 09:17:44;;;;;;;6.18;1.90;;;14.60;99.90;;;;;;5093014;28;20032;-54
2022/10/18 09:20:23;;;;;;;5.28;1.30;;;14.60;99.90;;;;;;5091170;28;20128;-55
2022/10/18 09:23:04;;;;;;;7.22;1.60;;;14.70;99.90;;;;;;5092907;28;20030;-53
2022/10/18 09:25:41;;;;;;;4.93;1.52;;;14.70;99.90;;;;;;5092374;28;20509;-59
2022/10/18 09:28:12;;;;;;;6.50;1.30;;;14.70;99.90;;;;;;5092572;28;20024;-54
2022/10/18 09:31:02;;;;;;;5.65;1.40;;;14.70;99.90;;;;;;5092960;28;20077;-54
2022/10/18 09:33:38;;;;;;;9.23;1.83;;;14.70;99.90;;;;;;5092275;28;20120;-56
2022/10/18 09:36:16;;;;;;;2.10;1.10;;;14.80;99.90;;;;;;5092435;28;20024;-56
2022/10/18 09:38:52;;;;;;;3.53;1.08;;;14.80;99.90;;;;;;5091186;28;20028;-55
2022/10/18 09:41:45;;;;;;;4.13;1.52;;;14.80;99.90;;;;;;5091094;28;20483;-60
2022/10/18 09:44:20;;;;;;;2.97;0.95;;;14.80;99.90;;;;;;5086399;28;20059;-61
2022/10/18 09:46:54;;;;;;;7.00;1.50;;;14.80;99.90;;;;;;5124726;27;20058;-56
2022/10/18 09:49:42;;;;;;;5.30;1.42;;;14.90;99.90;;;;;;5093256;28;20024;-56
2022/10/18 09:52:16;;;;;;;4.40;1.83;;;15.00;99.90;;;;;;5091992;28;20035;-52
2022/10/18 09:55:00;;;;;;;2.10;1.15;;;15.00;99.90;;;;;;5091609;28;20028;-59
2022/10/18 09:57:39;;;;;;;4.78;1.38;;;15.10;99.90;;;;;;5092496;28;20028;-56
2022/10/18 10:00:18;;;;;;;3.25;1.00;;;15.20;99.90;;;;;;5091938;28;20380;-52
2022/10/18 10:02:43;;;;;;;5.43;1.08;;;15.20;99.90;;;;;;5091665;28;20073;-55
2022/10/18 10:05:13;;;;;;;4.28;1.25;;;15.30;99.90;;;;;;5091873;28;20099;-52
2022/10/18 10:07:44;;;;;;;1.20;0.70;;;15.30;99.90;;;;;;5092198;28;20028;-56
2022/10/18 10:10:19;;;;;;;5.88;1.15;;;15.40;99.90;;;;;;5091941;28;20028;-53
2022/10/18 10:12:45;;;;;;;4.28;1.00;;;15.40;99.90;;;;;;5092210;28;20024;-55
2022/10/18 10:15:19;;;;;;;5.55;1.38;;;15.50;99.90;;;;;;5090764;28;20031;-57
2022/10/18 10:18:17;;;;;;;2.65;0.90;;;15.50;99.90;;;;;;5094260;28;20036;-56
2022/10/18 10:20:46;;;;;;;4.07;0.90;;;15.60;99.90;;;;;;5084259;28;20064;-57
2022/10/18 10:23:42;;;;;;;7.53;0.95;;;15.70;99.90;;;;;;5070983;28;20500;-55
2022/10/18 10:26:26;;;;;;;4.40;1.20;;;15.70;99.90;;;;;;5084065;28;20123;-51
2022/10/18 10:28:52;;;;;;;4.70;1.08;;;15.70;99.90;;;;;;5091313;28;20354;-51
2022/10/18 10:31:23;;;;;;;3.17;0.80;;;15.70;99.90;;;;;;5091575;28;20107;-52
2022/10/18 10:34:00;;;;;;;2.38;1.02;;;15.80;99.90;;;;;;5091653;28;20024;-52
2022/10/18 10:36:25;;;;;;;2.72;1.00;;;15.80;99.10;;;;;;5091762;28;20043;-57
2022/10/18 10:39:10;;;;;;;2.17;0.80;;;15.90;98.60;;;;;;5090018;28;20032;-52
2022/10/18 10:41:37;;;;;;;4.97;1.10;;;15.90;98.40;;;;;;5083607;28;20028;-49
2022/10/18 10:44:12;;;;;;;5.63;1.17;;;15.90;97.80;;;;;;5076646;28;20028;-50
2022/10/18 10:46:38;;;;;;;4.28;0.80;;;16.00;97.90;;;;;;5075175;28;20384;-49
2022/10/18 10:49:04;;;;;;;4.32;1.08;;;16.00;97.80;;;;;;5080021;28;20024;-53
2022/10/18 10:51:36;;;;;;;2.75;1.00;;;16.10;97.50;;;;;;5069185;28;20032;-53
2022/10/18 10:54:03;;;;;;;6.22;1.30;;;16.10;97.40;;;;;;5084553;28;20435;-54
2022/10/18 10:56:32;;;;;;;4.35;0.80;;;16.10;96.80;;;;;;5089710;28;20024;-51
2022/10/18 10:59:07;;;;;;;4.95;1.27;;;16.20;96.20;;;;;;5088713;28;20122;-52
2022/10/18 11:01:32;;;;;;;2.08;1.00;;;16.30;95.40;;;;;;5070113;28;20029;-56
2022/10/18 11:04:02;;;;;;;4.72;0.85;;;16.30;94.30;;;;;;5068948;28;20044;-57
2022/10/18 11:06:34;;;;;;;1.77;0.75;;;16.40;93.20;;;;;;5076852;28;20047;-49
2022/10/18 11:09:08;;;;;;;2.13;0.60;;;16.40;93.00;;;;;;5088956;28;20038;-52
2022/10/18 11:11:40;;;;;;;2.10;0.95;;;16.40;93.00;;;;;;5088778;28;20031;-57
2022/10/18 11:14:20;;;;;;;2.22;0.80;;;16.50;93.40;;;;;;5089833;28;20158;-55
2022/10/18 11:17:13;;;;;;;4.72;1.25;;;16.50;93.50;;;;;;5090221;28;20028;-50
2022/10/18 11:19:55;;;;;;;5.68;0.93;;;16.50;93.30;;;;;;5037226;28;20602;-55
2022/10/18 11:22:24;;;;;;;3.83;1.00;;;16.50;93.30;;;;;;5085252;28;20036;-56
2022/10/18 11:24:50;;;;;;;3.42;0.95;;;16.60;93.10;;;;;;5089930;28;20349;-56
2022/10/18 11:27:31;;;;;;;9.10;1.20;;;16.60;92.30;;;;;;5091727;28;20107;-54
2022/10/18 11:30:09;;;;;;;3.55;1.02;;;16.60;92.30;;;;;;5094214;28;20024;-51
2022/10/18 11:32:59;;;;;;;3.38;0.90;;;16.70;92.40;;;;;;5093138;28;20056;-54
2022/10/18 11:35:39;;;;;;;3.67;1.20;;;16.70;91.20;;;;;;5093766;28;20016;-55
2022/10/18 11:38:17;;;;;;;3.28;0.70;;;16.70;91.30;;;;;;5090482;28;20039;-58
2022/10/18 11:41:14;;;;;;;2.70;0.88;;;16.70;91.30;;;;;;5094030;28;20023;-53
2022/10/18 11:43:50;;;;;;;6.22;2.38;;;16.70;90.70;;;;;;5084545;28;20122;-57
2022/10/18 11:46:31;;;;;;;2.00;0.70;;;16.70;91.10;;;;;;5071505;28;20027;-58
2022/10/18 11:49:11;;;;;;;1.88;0.77;;;16.70;89.30;;;;;;5092327;28;20051;-54
2022/10/18 11:52:01;;;;;;;7.57;1.63;;;16.70;89.50;;;;;;5091206;28;20029;-50
2022/10/18 11:54:33;;;;;;;4.50;1.13;;;16.70;89.50;;;;;;5072528;28;20086;-54
2022/10/18 11:57:01;;;;;;;3.83;1.00;;;16.80;88.70;;;;;;5072805;28;20089;-55
2022/10/18 11:59:36;;;;;;;5.57;0.98;;;16.80;88.60;;;;;;5095866;28;20469;-54
2022/10/18 12:02:24;;;;;;;5.93;1.10;;;16.80;88.80;;;;;;5090688;28;20102;-54
2022/10/18 12:04:55;;;;;;;7.10;1.17;;;16.90;88.80;;;;;;5093039;28;20024;-57
2022/10/18 12:07:22;;;;;;;3.90;0.80;;;16.90;84.70;;;;;;5092414;28;20123;-51
2022/10/18 12:09:52;;;;;;;6.22;1.10;;;16.90;84.90;;;;;;5092764;28;20067;-54
2022/10/18 12:12:25;;;;;;;3.88;0.93;;;16.90;84.80;;;;;;5095756;28;20031;-49
2022/10/18 12:14:53;;;;;;;2.13;0.70;;;17.00;82.70;;;;;;5088284;28;20027;-47
2022/10/18 12:17:31;;;;;;;4.95;1.00;;;17.00;82.10;;;;;;5096405;28;20043;-50
2022/10/18 12:20:03;;;;;;;4.90;1.05;;;17.00;83.10;;;;;;5094570;28;20107;-49
2022/10/18 12:22:35;;;;;;;5.15;1.27;;;17.00;82.30;;;;;;5082481;28;20443;-50
2022/10/18 12:25:00;;;;;;;4.60;1.13;;;17.00;80.60;;;;;;5081350;28;20030;-49
2022/10/18 12:27:57;;;;;;;7.18;1.13;;;17.00;79.60;;;;;;5093538;28;20016;-49
2022/10/18 12:30:43;;;;;;;2.22;1.20;;;17.00;80.30;;;;;;5094581;28;20016;-55
2022/10/18 12:33:20;;;;;;;4.43;1.15;;;17.10;80.10;;;;;;5092563;28;20040;-49
2022/10/18 12:36:24;;;;;;;4.43;1.08;;;17.10;79.90;;;;;;5091168;28;20178;-48
2022/10/18 12:38:56;;;;;;;3.03;0.65;;;17.00;80.60;;;;;;5089508;28;20039;-49
2022/10/18 12:41:26;;;;;;;3.42;1.13;;;17.00;79.80;;;;;;5073413;28;20092;-51
2022/10/18 12:44:06;;;;;;;2.95;1.00;;;17.00;80.40;;;;;;5080243;28;20032;-53
2022/10/18 12:46:51;;;;;;;3.10;1.10;;;17.00;78.30;;;;;;5081111;28;20480;-53
2022/10/18 12:49:27;;;;;;;4.82;1.25;;;17.00;78.00;;;;;;5092337;28;20106;-46
2022/10/18 12:51:57;;;;;;;1.83;0.70;;;17.00;77.20;;;;;;5091446;28;20016;-53
2022/10/18 12:54:34;;;;;;;2.83;0.98;;;17.00;78.40;;;;;;5089125;28;20457;-53
2022/10/18 12:57:02;;;;;;;4.50;1.08;;;17.10;79.30;;;;;;5090319;28;20063;-55